ROMMA est une association bénévole à but non lucratif. Votre soutien est indispensable : ADHERER à ROMMA ou FAIRE un DON

Eygliers - (05, Hautes-Alpes)

Guillestrois (965 m)   Longitude: 6° 38' 04" E   Latitude: 44° 40' 37" N Station partenaire n°53
 

Détail journalier du     <<     >>

Température Precipitation Humidité Vent Dir Rafale Dir. rafale Ensol.
Heure (°C) (mm) (%) (km/h) (km/h) (min)
01:00 9.60874N13NNE0
02:00 9.10922O8O0
03:00 8.90913NE11E0
04:00 8.80931NNE8S0
05:00 8.40954SE13S0
06:00 8.30953E10E0
07:00 8.70921E8ESE0
08:00 8.40.4943SE18NNE0
09:00 8.61.6952E8ESE0
10:00 9.60943ESE15ESE5
11:00 10.90882NE15NNE0
12:00 12.50814SSE15NNE10
13:00 13.60795SE19NE15
14:00 15.80696SO18ESE50
15:00 15.30699SSE29OSO40
16:00 14.40697SO29OSO55
17:00 13.30736SO19OSO30
18:00 12.30774ESE15ESE0
19:00 10.40844ENE11ESE0
20:00 10.40814N13N0
21:00 9.80834E10ESE0
22:00 8.70841SE6ESE0
23:00 7.508905NE0
minuit 6.60912NNE6NE0

Graphique du 11-11-2018

 

Serveur OMMA